createdAt,value
2023-11-20T00:01:59.120Z,10.82
2023-11-20T00:04:26.414Z,10.82
2023-11-20T00:06:53.407Z,10.84
2023-11-20T00:09:20.070Z,10.83
2023-11-20T00:11:46.793Z,10.81
2023-11-20T00:14:14.802Z,10.80
2023-11-20T00:16:41.841Z,10.78
2023-11-20T00:19:11.739Z,10.76
2023-11-20T00:21:42.678Z,10.74
2023-11-20T00:24:10.632Z,10.74
2023-11-20T00:26:38.135Z,10.74
2023-11-20T00:29:08.464Z,10.73
2023-11-20T00:31:38.104Z,10.72
2023-11-20T00:34:05.274Z,10.72
2023-11-20T00:36:32.221Z,10.71
2023-11-20T00:38:58.811Z,10.69
2023-11-20T00:41:26.553Z,10.68
2023-11-20T00:43:53.298Z,10.68
2023-11-20T00:46:20.093Z,10.67
2023-11-20T00:48:46.771Z,10.67
2023-11-20T00:51:14.707Z,10.66
2023-11-20T00:53:41.590Z,10.65
2023-11-20T00:56:08.532Z,10.64
2023-11-20T00:58:36.063Z,10.63
2023-11-20T01:01:03.051Z,10.62
2023-11-20T01:03:30.152Z,10.60
2023-11-20T01:05:57.231Z,10.59
2023-11-20T01:08:23.826Z,10.58
2023-11-20T01:10:50.317Z,10.57
2023-11-20T01:13:16.885Z,10.56
2023-11-20T01:15:43.468Z,10.56
2023-11-20T01:18:10.158Z,10.54
2023-11-20T01:20:36.791Z,10.55
2023-11-20T01:23:04.232Z,10.55
2023-11-20T01:25:32.946Z,10.54
2023-11-20T01:28:00.273Z,10.54
2023-11-20T01:30:27.840Z,10.53
2023-11-20T01:32:54.670Z,10.53
2023-11-20T01:35:21.939Z,10.53
2023-11-20T01:37:48.523Z,10.52
2023-11-20T01:40:15.478Z,10.51
2023-11-20T01:42:42.212Z,10.51
2023-11-20T01:45:09.439Z,10.49
2023-11-20T01:47:39.627Z,10.48
2023-11-20T01:50:11.165Z,10.48
2023-11-20T01:52:42.278Z,10.47
2023-11-20T01:55:10.581Z,10.46
2023-11-20T01:57:40.128Z,10.45
2023-11-20T02:00:10.520Z,10.45
2023-11-20T02:05:09.840Z,10.44
2023-11-20T02:07:37.704Z,10.44
2023-11-20T02:10:08.574Z,10.43
2023-11-20T02:12:36.261Z,10.42
2023-11-20T02:15:03.493Z,10.41
2023-11-20T02:17:30.640Z,10.42
2023-11-20T02:19:57.222Z,10.40
2023-11-20T02:22:23.926Z,10.41
2023-11-20T02:24:50.619Z,10.38
2023-11-20T02:27:53.356Z,10.39
2023-11-20T02:30:20.203Z,10.38
2023-11-20T02:32:46.865Z,10.38
2023-11-20T02:35:19.899Z,10.35
2023-11-20T02:37:48.155Z,10.36
2023-11-20T02:40:15.127Z,10.36
2023-11-20T02:42:42.606Z,10.35
2023-11-20T02:45:14.190Z,10.35
2023-11-20T02:47:40.879Z,10.35
2023-11-20T02:50:07.910Z,10.33
2023-11-20T02:52:34.445Z,10.33
2023-11-20T02:55:00.966Z,10.32
2023-11-20T02:57:27.949Z,10.31
2023-11-20T02:59:54.444Z,10.30
2023-11-20T03:02:21.064Z,10.30
2023-11-20T03:04:47.592Z,10.29
2023-11-20T03:07:15.865Z,10.30
2023-11-20T03:09:42.832Z,10.27
2023-11-20T03:12:09.503Z,10.28
2023-11-20T03:14:36.157Z,10.28
2023-11-20T03:17:02.774Z,10.29
2023-11-20T03:19:29.941Z,10.28
2023-11-20T03:21:56.791Z,10.26
2023-11-20T03:24:23.538Z,10.27
2023-11-20T03:26:50.425Z,10.26
2023-11-20T03:29:17.123Z,10.25
2023-11-20T03:31:43.679Z,10.24
2023-11-20T03:34:10.158Z,10.22
2023-11-20T03:36:36.999Z,10.21
2023-11-20T03:39:04.364Z,10.20
2023-11-20T03:41:31.285Z,10.20
2023-11-20T03:43:57.814Z,10.19
2023-11-20T03:46:24.389Z,10.20
2023-11-20T03:48:51.027Z,10.19
2023-11-20T03:51:18.395Z,10.18
2023-11-20T03:53:45.404Z,10.18
2023-11-20T03:56:16.563Z,10.18
2023-11-20T03:58:45.646Z,10.17
2023-11-20T04:01:13.137Z,10.17
2023-11-20T04:03:40.051Z,10.17
2023-11-20T04:06:07.099Z,10.18
2023-11-20T04:08:33.730Z,10.16
2023-11-20T04:11:00.240Z,10.15
2023-11-20T04:13:26.797Z,10.16
2023-11-20T04:15:53.487Z,10.15
2023-11-20T04:18:20.275Z,10.16
2023-11-20T04:20:47.104Z,10.17
2023-11-20T04:23:13.943Z,10.17
2023-11-20T04:25:40.504Z,10.16
2023-11-20T04:28:07.291Z,10.15
2023-11-20T04:30:33.829Z,10.15
2023-11-20T04:33:00.462Z,10.15
2023-11-20T04:35:26.982Z,10.16
2023-11-20T04:37:53.677Z,10.16
2023-11-20T04:40:20.226Z,10.17
2023-11-20T04:42:46.701Z,10.17
2023-11-20T04:45:13.778Z,10.16
2023-11-20T04:47:41.790Z,10.16
2023-11-20T04:50:09.916Z,10.15
2023-11-20T04:52:39.378Z,10.15
2023-11-20T04:55:06.890Z,10.13
2023-11-20T04:57:34.948Z,10.11
2023-11-20T05:00:04.243Z,10.11
2023-11-20T05:02:30.865Z,10.10
2023-11-20T05:04:57.703Z,10.10
2023-11-20T05:07:24.858Z,10.09
2023-11-20T05:09:52.502Z,10.08
2023-11-20T05:12:19.133Z,10.07
2023-11-20T05:14:45.628Z,10.07
2023-11-20T05:17:12.287Z,10.06
2023-11-20T05:19:38.784Z,10.03
2023-11-20T05:22:05.543Z,10.03
2023-11-20T05:24:32.406Z,10.02
2023-11-20T05:26:59.043Z,10.01
2023-11-20T05:29:25.448Z,10.00
2023-11-20T05:31:52.202Z,10.00
2023-11-20T05:34:20.155Z,10.00
2023-11-20T05:36:46.610Z,9.99
2023-11-20T05:39:13.146Z,9.99
2023-11-20T05:41:40.144Z,9.99
2023-11-20T05:44:06.697Z,9.99
2023-11-20T05:46:33.252Z,9.98
2023-11-20T05:49:00.006Z,9.97
2023-11-20T05:51:26.517Z,9.96
2023-11-20T05:53:53.044Z,9.94
2023-11-20T05:56:19.494Z,9.93
2023-11-20T05:58:46.856Z,9.93
2023-11-20T06:01:13.911Z,9.93
2023-11-20T06:03:40.747Z,9.92
2023-11-20T06:06:07.538Z,9.90
2023-11-20T06:08:35.175Z,9.90
2023-11-20T06:11:01.590Z,9.90
2023-11-20T06:13:28.096Z,9.88
2023-11-20T06:15:54.625Z,9.88
2023-11-20T06:18:21.045Z,9.87
2023-11-20T06:20:47.513Z,9.86
2023-11-20T06:23:14.255Z,9.84
2023-11-20T06:25:40.806Z,9.82
2023-11-20T06:28:07.289Z,9.81
2023-11-20T06:30:34.318Z,9.81
2023-11-20T06:33:00.915Z,9.78
2023-11-20T06:35:27.580Z,9.76
2023-11-20T06:37:54.186Z,9.72
2023-11-20T06:40:20.724Z,9.70
2023-11-20T06:42:47.356Z,9.69
2023-11-20T06:45:14.037Z,9.69
2023-11-20T06:47:40.521Z,9.68
2023-11-20T06:50:07.847Z,9.68
2023-11-20T06:52:34.933Z,9.68
2023-11-20T06:55:01.654Z,9.66
2023-11-20T06:57:28.558Z,9.66
2023-11-20T06:59:55.053Z,9.64
2023-11-20T07:02:23.337Z,9.62
2023-11-20T07:04:50.249Z,9.60
2023-11-20T07:07:18.913Z,9.59
2023-11-20T07:09:45.633Z,9.58
2023-11-20T07:12:12.470Z,9.55
2023-11-20T07:14:40.155Z,9.54
2023-11-20T07:17:06.765Z,9.53
2023-11-20T07:19:33.306Z,9.52
2023-11-20T07:21:59.887Z,9.53
2023-11-20T07:24:26.543Z,9.53
2023-11-20T07:26:53.076Z,9.53
2023-11-20T07:29:19.621Z,9.54
2023-11-20T07:31:46.305Z,9.54
2023-11-20T07:34:13.014Z,9.53
2023-11-20T07:36:39.521Z,9.53
2023-11-20T07:39:06.232Z,9.52
2023-11-20T07:41:32.858Z,9.52
2023-11-20T07:43:59.874Z,9.53
2023-11-20T07:46:26.608Z,9.54
2023-11-20T07:48:54.793Z,9.52
2023-11-20T07:51:21.688Z,9.50
2023-11-20T07:53:49.660Z,9.48
2023-11-20T07:56:17.580Z,9.46
2023-11-20T07:58:44.193Z,9.46
2023-11-20T08:01:10.863Z,9.44
2023-11-20T08:03:37.605Z,9.43
2023-11-20T08:06:16.681Z,9.42
2023-11-20T08:08:47.919Z,9.40
2023-11-20T08:11:14.398Z,9.38
2023-11-20T08:13:40.889Z,9.35
2023-11-20T08:16:09.532Z,9.37
2023-11-20T08:18:37.592Z,9.38
2023-11-20T08:21:04.602Z,9.41
2023-11-20T08:23:31.169Z,9.42
2023-11-20T08:25:58.166Z,9.42
2023-11-20T08:28:24.682Z,9.44
2023-11-20T08:30:51.975Z,9.44
2023-11-20T08:33:18.471Z,9.45
2023-11-20T08:35:45.078Z,9.45
2023-11-20T08:38:12.265Z,9.46
2023-11-20T08:40:39.175Z,9.45
2023-11-20T08:43:07.067Z,9.45
2023-11-20T08:45:34.420Z,9.46
2023-11-20T08:48:01.198Z,9.50
2023-11-20T08:50:28.095Z,9.55
2023-11-20T08:52:54.596Z,9.61
2023-11-20T08:55:21.516Z,9.66
2023-11-20T08:57:48.560Z,9.73
2023-11-20T09:00:16.611Z,9.77
2023-11-20T09:02:44.754Z,9.74
2023-11-20T09:05:14.224Z,9.70
2023-11-20T09:07:42.486Z,9.69
2023-11-20T09:10:10.286Z,9.72
2023-11-20T09:12:37.544Z,9.72
2023-11-20T09:15:05.984Z,9.71
2023-11-20T09:17:32.734Z,9.71
2023-11-20T09:19:59.803Z,9.67
2023-11-20T09:22:26.724Z,9.66
2023-11-20T09:24:59.353Z,9.66
2023-11-20T09:27:31.549Z,9.64
2023-11-20T09:29:59.317Z,9.63
2023-11-20T09:32:27.549Z,9.62
2023-11-20T09:34:53.963Z,9.63
2023-11-20T09:37:20.596Z,9.64
2023-11-20T09:39:47.804Z,9.61
2023-11-20T09:42:15.774Z,9.60
2023-11-20T09:44:47.537Z,9.58
2023-11-20T09:47:15.680Z,9.55
2023-11-20T09:49:46.169Z,9.53
2023-11-20T09:52:13.800Z,9.52
2023-11-20T09:54:44.519Z,9.53
2023-11-20T09:57:11.350Z,9.53
2023-11-20T09:59:38.692Z,9.54
2023-11-20T10:02:06.353Z,9.55
2023-11-20T10:04:34.729Z,9.59
2023-11-20T10:07:07.011Z,9.59
2023-11-20T10:09:34.381Z,9.61
2023-11-20T10:12:04.752Z,9.66
2023-11-20T10:14:36.141Z,9.68
2023-11-20T10:17:03.341Z,9.69
2023-11-20T10:19:30.832Z,9.71
2023-11-20T10:21:59.763Z,9.75
2023-11-20T10:24:26.333Z,9.77
2023-11-20T10:26:53.861Z,9.83
2023-11-20T10:29:22.013Z,9.87
2023-11-20T10:31:48.584Z,9.89
2023-11-20T10:34:19.082Z,9.91
2023-11-20T10:37:07.466Z,9.91
2023-11-20T10:39:34.266Z,9.88
2023-11-20T10:42:00.752Z,9.86
2023-11-20T10:44:27.687Z,9.85
2023-11-20T10:46:55.103Z,9.86
2023-11-20T10:49:23.472Z,9.89
2023-11-20T10:51:57.543Z,9.90
2023-11-20T10:54:45.165Z,9.94
2023-11-20T10:57:11.730Z,9.96
2023-11-20T10:59:40.769Z,9.97
2023-11-20T11:02:18.923Z,9.97
2023-11-20T11:04:46.286Z,9.97
2023-11-20T11:07:15.433Z,9.96
2023-11-20T11:09:42.227Z,9.98
2023-11-20T11:12:09.488Z,9.98
2023-11-20T11:14:35.988Z,9.99
2023-11-20T11:17:08.165Z,10.01
2023-11-20T11:19:44.056Z,10.06
2023-11-20T11:22:14.719Z,10.10
2023-11-20T11:24:43.810Z,10.18
2023-11-20T11:27:20.334Z,10.28
2023-11-20T11:29:57.921Z,10.32
2023-11-20T11:32:49.026Z,10.32
2023-11-20T11:35:32.085Z,10.31
2023-11-20T11:38:12.565Z,10.30
2023-11-20T11:41:15.189Z,10.30
2023-11-20T11:44:00.425Z,10.30
2023-11-20T11:46:27.871Z,10.30
2023-11-20T11:48:54.535Z,10.29
2023-11-20T11:51:25.865Z,10.30
2023-11-20T11:54:17.945Z,10.32
2023-11-20T11:56:58.817Z,10.31
2023-11-20T11:59:46.468Z,10.32
2023-11-20T12:02:22.032Z,10.31
2023-11-20T12:04:58.087Z,10.29
2023-11-20T12:07:47.032Z,10.29
2023-11-20T12:10:13.893Z,10.28
2023-11-20T12:12:49.582Z,10.28
2023-11-20T12:15:31.792Z,10.27
2023-11-20T12:18:03.014Z,10.24
2023-11-20T12:20:32.227Z,10.15
2023-11-20T12:23:07.342Z,10.08
2023-11-20T12:25:37.988Z,10.03
2023-11-20T12:28:10.540Z,9.94
2023-11-20T12:30:37.301Z,9.86
2023-11-20T12:33:04.187Z,9.81
2023-11-20T12:35:33.547Z,9.82
2023-11-20T12:38:01.644Z,9.81
2023-11-20T12:40:28.398Z,9.76
2023-11-20T12:42:55.334Z,9.76
2023-11-20T12:45:22.097Z,9.73
2023-11-20T12:47:49.064Z,9.74
2023-11-20T12:50:15.570Z,9.80
2023-11-20T12:52:42.979Z,9.88
2023-11-20T12:55:11.869Z,9.91
2023-11-20T12:57:39.157Z,10.02
2023-11-20T13:00:11.327Z,10.12
2023-11-20T13:02:39.301Z,10.23
2023-11-20T13:05:09.154Z,10.23
2023-11-20T13:07:36.069Z,10.20
2023-11-20T13:10:07.770Z,10.15
2023-11-20T13:12:36.628Z,10.09
2023-11-20T13:15:05.628Z,10.09
2023-11-20T13:17:35.247Z,10.08
2023-11-20T13:20:06.727Z,10.09
2023-11-20T13:22:45.712Z,10.10
2023-11-20T13:25:12.453Z,10.12
2023-11-20T13:27:41.974Z,10.12
2023-11-20T13:30:18.762Z,10.19
2023-11-20T13:32:45.958Z,10.26
2023-11-20T13:35:12.883Z,10.30
2023-11-20T13:37:42.233Z,10.43
2023-11-20T13:40:13.513Z,10.50
2023-11-20T13:42:41.025Z,10.48
2023-11-20T13:45:08.396Z,10.48
2023-11-20T13:47:39.248Z,10.52
2023-11-20T13:50:21.535Z,10.53
2023-11-20T13:52:48.525Z,10.51
2023-11-20T13:55:15.259Z,10.50
2023-11-20T13:57:43.578Z,10.50
2023-11-20T14:00:19.994Z,10.50
2023-11-20T14:02:50.335Z,10.49
2023-11-20T14:05:18.533Z,10.51
2023-11-20T14:07:46.264Z,10.51
2023-11-20T14:10:14.395Z,10.56
2023-11-20T14:12:41.085Z,10.52
2023-11-20T14:15:07.971Z,10.41
2023-11-20T14:17:34.669Z,10.38
2023-11-20T14:20:02.329Z,10.34
2023-11-20T14:22:28.918Z,10.33
2023-11-20T14:24:58.922Z,10.27
2023-11-20T14:27:26.147Z,10.24
2023-11-20T14:29:55.188Z,10.19
2023-11-20T14:32:22.064Z,10.18
2023-11-20T14:34:49.315Z,10.16
2023-11-20T14:37:18.419Z,10.16
2023-11-20T14:39:45.309Z,10.11
2023-11-20T14:42:11.756Z,10.10
2023-11-20T14:44:39.458Z,10.12
2023-11-20T14:47:07.801Z,10.10
2023-11-20T14:49:36.406Z,10.07
2023-11-20T14:52:04.261Z,10.05
2023-11-20T14:54:30.879Z,10.01
2023-11-20T14:56:57.488Z,10.00
2023-11-20T14:59:23.935Z,9.99
2023-11-20T15:01:52.225Z,10.00
2023-11-20T15:04:21.114Z,9.98
2023-11-20T15:06:48.625Z,9.96
2023-11-20T15:09:15.883Z,9.97
2023-11-20T15:11:42.422Z,9.98
2023-11-20T15:14:09.209Z,9.96
2023-11-20T15:16:38.570Z,9.95
2023-11-20T15:19:06.291Z,9.95
2023-11-20T15:21:33.307Z,9.94
2023-11-20T15:26:40.384Z,9.93
2023-11-20T15:29:08.544Z,9.91
2023-11-20T15:31:35.205Z,9.92
2023-11-20T15:34:01.734Z,9.88
2023-11-20T15:36:28.229Z,9.87
2023-11-20T15:38:54.868Z,9.84
2023-11-20T15:41:21.296Z,9.80
2023-11-20T15:43:47.742Z,9.77
2023-11-20T15:46:15.757Z,9.74
2023-11-20T15:48:43.924Z,9.73
2023-11-20T15:51:12.058Z,9.72
2023-11-20T15:53:38.753Z,9.70
2023-11-20T15:56:16.488Z,9.69
2023-11-20T15:58:43.319Z,9.68
2023-11-20T16:01:10.025Z,9.68
2023-11-20T16:03:36.888Z,9.65
2023-11-20T16:06:03.598Z,9.64
2023-11-20T16:08:35.561Z,9.61
2023-11-20T16:11:02.200Z,9.61
2023-11-20T16:13:29.575Z,9.59
2023-11-20T16:15:56.970Z,9.57
2023-11-20T16:18:23.685Z,9.56
2023-11-20T16:20:50.671Z,9.52
2023-11-20T16:23:17.370Z,9.53
2023-11-20T16:25:48.310Z,9.52
2023-11-20T16:28:15.626Z,9.50
2023-11-20T16:30:42.289Z,9.49
2023-11-20T16:33:08.958Z,9.48
2023-11-20T16:35:38.254Z,9.45
2023-11-20T16:38:04.977Z,9.45
2023-11-20T16:40:32.085Z,9.42
2023-11-20T16:43:00.265Z,9.39
2023-11-20T16:45:27.095Z,9.40
2023-11-20T16:47:54.424Z,9.40
2023-11-20T16:50:20.949Z,9.37
2023-11-20T16:52:47.765Z,9.33
2023-11-20T16:55:14.606Z,9.33
2023-11-20T16:57:41.165Z,9.28
2023-11-20T17:00:13.723Z,9.23
2023-11-20T17:02:40.492Z,9.19
2023-11-20T17:05:09.881Z,9.18
2023-11-20T17:07:36.715Z,9.16
2023-11-20T17:10:05.782Z,9.16
2023-11-20T17:12:33.566Z,9.14
2023-11-20T17:14:59.985Z,9.13
2023-11-20T17:17:26.565Z,9.13
2023-11-20T17:19:54.145Z,9.11
2023-11-20T17:22:22.581Z,9.09
2023-11-20T17:24:51.361Z,9.07
2023-11-20T17:27:18.043Z,9.01
2023-11-20T17:32:26.504Z,8.97
2023-11-20T17:34:53.296Z,8.94
2023-11-20T17:37:20.540Z,8.93
2023-11-20T17:39:47.330Z,8.92
2023-11-20T17:42:15.513Z,8.93
2023-11-20T17:44:44.634Z,8.95
2023-11-20T17:47:12.256Z,8.95
2023-11-20T17:49:39.099Z,8.94
2023-11-20T17:54:46.239Z,8.93
2023-11-20T17:57:12.786Z,8.94
2023-11-20T17:59:39.591Z,8.87
2023-11-20T18:02:06.288Z,8.90
2023-11-20T18:04:35.405Z,8.90
2023-11-20T18:07:03.734Z,8.87
2023-11-20T18:09:30.157Z,8.90
2023-11-20T18:11:56.939Z,8.87
2023-11-20T18:14:23.590Z,8.87
2023-11-20T18:16:50.104Z,8.85
2023-11-20T18:19:16.613Z,8.84
2023-11-20T18:21:52.101Z,8.86
2023-11-20T18:24:20.765Z,8.90
2023-11-20T18:26:47.270Z,8.90
2023-11-20T18:29:14.275Z,8.89
2023-11-20T18:31:40.779Z,8.89
2023-11-20T18:34:08.997Z,8.90
2023-11-20T18:36:35.528Z,8.91
2023-11-20T18:39:02.016Z,8.90
2023-11-20T18:41:31.537Z,8.90
2023-11-20T18:43:58.237Z,8.91
2023-11-20T18:46:24.731Z,8.88
2023-11-20T18:48:51.407Z,8.87
2023-11-20T18:51:17.853Z,8.84
2023-11-20T18:53:47.064Z,8.81
2023-11-20T18:56:13.562Z,8.75
2023-11-20T18:58:41.257Z,8.75
2023-11-20T19:01:07.818Z,8.73
2023-11-20T19:03:34.642Z,8.85
2023-11-20T19:06:01.172Z,8.99
2023-11-20T19:08:31.854Z,9.08
2023-11-20T19:10:58.274Z,9.11
2023-11-20T19:13:24.745Z,9.24
2023-11-20T19:15:53.688Z,9.26
2023-11-20T19:18:20.251Z,9.24
2023-11-20T19:20:47.076Z,9.21
2023-11-20T19:23:13.773Z,9.26
2023-11-20T19:25:40.799Z,9.25
2023-11-20T19:28:07.458Z,9.18
2023-11-20T19:30:35.936Z,9.23
2023-11-20T19:33:06.629Z,9.16
2023-11-20T19:35:33.235Z,9.12
2023-11-20T19:38:00.120Z,9.21
2023-11-20T19:40:27.921Z,9.26
2023-11-20T19:42:54.577Z,9.28
2023-11-20T19:45:22.513Z,9.27
2023-11-20T19:47:49.281Z,9.27
2023-11-20T19:50:16.088Z,9.27
2023-11-20T19:52:43.651Z,9.33
2023-11-20T19:55:10.541Z,9.29
2023-11-20T19:57:37.401Z,9.26
2023-11-20T20:00:09.089Z,9.25
2023-11-20T20:02:36.401Z,9.20
2023-11-20T20:05:03.536Z,9.07
2023-11-20T20:07:30.467Z,9.09
2023-11-20T20:09:56.985Z,9.13
2023-11-20T20:12:23.481Z,9.10
2023-11-20T20:14:52.090Z,9.08
2023-11-20T20:17:20.133Z,9.13
2023-11-20T20:19:49.470Z,9.16
2023-11-20T20:22:17.541Z,9.15
2023-11-20T20:24:45.587Z,9.16
2023-11-20T20:27:12.354Z,9.13
2023-11-20T20:29:39.883Z,9.09
2023-11-20T20:32:10.239Z,9.06
2023-11-20T20:34:38.248Z,9.05
2023-11-20T20:37:05.160Z,9.03
2023-11-20T20:39:31.587Z,8.96
2023-11-20T20:41:58.153Z,8.94
2023-11-20T20:44:25.103Z,8.96
2023-11-20T20:46:52.201Z,9.01
2023-11-20T20:49:19.477Z,9.03
2023-11-20T20:51:46.910Z,9.05
2023-11-20T20:54:13.932Z,9.00
2023-11-20T20:56:41.949Z,8.91
2023-11-20T20:59:10.105Z,8.92
2023-11-20T21:01:37.227Z,8.91
2023-11-20T21:04:04.946Z,8.93
2023-11-20T21:06:31.474Z,8.89
2023-11-20T21:08:59.791Z,8.84
2023-11-20T21:11:26.371Z,8.88
2023-11-20T21:13:53.148Z,8.86
2023-11-20T21:16:20.130Z,8.84
2023-11-20T21:18:46.604Z,8.80
2023-11-20T21:21:13.235Z,8.76
2023-11-20T21:23:40.332Z,8.72
2023-11-20T21:26:07.243Z,8.71
2023-11-20T21:28:34.829Z,8.64
2023-11-20T21:31:04.590Z,8.62
2023-11-20T21:33:31.846Z,8.66
2023-11-20T21:35:58.303Z,8.62
2023-11-20T21:38:25.191Z,8.59
2023-11-20T21:40:52.679Z,8.58
2023-11-20T21:43:19.809Z,8.55
2023-11-20T21:45:57.441Z,8.48
2023-11-20T21:48:24.423Z,8.48
2023-11-20T21:50:50.895Z,8.46
2023-11-20T21:53:17.464Z,8.38
2023-11-20T21:55:46.521Z,8.32
2023-11-20T21:58:14.027Z,8.31
2023-11-20T22:00:40.505Z,8.31
2023-11-20T22:03:07.995Z,8.29
2023-11-20T22:05:34.588Z,8.28
2023-11-20T22:08:01.101Z,8.25
2023-11-20T22:10:27.600Z,8.19
2023-11-20T22:12:54.168Z,8.18
2023-11-20T22:15:20.655Z,8.17
2023-11-20T22:17:47.227Z,8.15
2023-11-20T22:20:14.143Z,8.06
2023-11-20T22:22:44.098Z,8.04
2023-11-20T22:25:11.640Z,8.04
2023-11-20T22:27:38.614Z,8.00
2023-11-20T22:30:07.652Z,7.89
2023-11-20T22:32:34.289Z,7.88
2023-11-20T22:35:10.725Z,7.84
2023-11-20T22:37:41.272Z,7.83
2023-11-20T22:40:10.335Z,7.85
2023-11-20T22:42:38.611Z,7.82
2023-11-20T22:45:07.572Z,7.80
2023-11-20T22:47:34.425Z,7.78
2023-11-20T22:50:01.108Z,7.76
2023-11-20T22:52:27.777Z,7.74
2023-11-20T22:54:54.494Z,7.74
2023-11-20T22:57:21.504Z,7.70
2023-11-20T22:59:48.214Z,7.66
2023-11-20T23:02:14.959Z,7.65
2023-11-20T23:04:41.794Z,7.63
2023-11-20T23:07:08.419Z,7.60
2023-11-20T23:09:34.888Z,7.59
2023-11-20T23:12:01.375Z,7.54
2023-11-20T23:14:27.879Z,7.52
2023-11-20T23:16:55.297Z,7.49
2023-11-20T23:19:22.707Z,7.47
2023-11-20T23:21:49.583Z,7.41
2023-11-20T23:24:16.082Z,7.37
2023-11-20T23:26:42.601Z,7.31
2023-11-20T23:29:13.980Z,7.28
2023-11-20T23:31:41.287Z,7.26
2023-11-20T23:34:08.097Z,7.20
2023-11-20T23:36:34.660Z,7.18
2023-11-20T23:39:01.206Z,7.14
2023-11-20T23:41:27.925Z,7.11
2023-11-20T23:43:55.111Z,7.11
2023-11-20T23:46:22.661Z,7.11
2023-11-20T23:48:51.914Z,7.10
2023-11-20T23:51:18.783Z,7.06
2023-11-20T23:53:46.362Z,7.05
2023-11-20T23:56:14.211Z,7.05
2023-11-20T23:58:41.155Z,7.04
